createdAt,value
2023-04-15T00:01:10.214Z,99764.13
2023-04-15T00:03:37.508Z,99772.53
2023-04-15T00:06:04.984Z,99761.31
2023-04-15T00:08:32.051Z,99765.16
2023-04-15T00:11:02.933Z,99767.22
2023-04-15T00:13:30.212Z,99762.00
2023-04-15T00:15:57.366Z,99761.19
2023-04-15T00:18:24.754Z,99763.09
2023-04-15T00:20:52.576Z,99753.16
2023-04-15T00:23:19.689Z,99748.97
2023-04-15T00:25:46.986Z,99752.59
2023-04-15T00:28:14.156Z,99755.78
2023-04-15T00:30:41.681Z,99749.41
2023-04-15T00:33:09.774Z,99750.91
2023-04-15T00:35:37.523Z,99753.75
2023-04-15T00:38:05.976Z,99747.03
2023-04-15T00:40:33.391Z,99747.84
2023-04-15T00:43:00.473Z,99747.84
2023-04-15T00:45:28.212Z,99742.09
2023-04-15T00:47:56.072Z,99744.88
2023-04-15T00:50:23.188Z,99749.22
2023-04-15T00:52:50.262Z,99749.28
2023-04-15T00:55:17.298Z,99749.88
2023-04-15T00:57:44.635Z,99747.38
2023-04-15T01:00:12.169Z,99744.13
2023-04-15T01:02:39.683Z,99740.81
2023-04-15T01:05:07.777Z,99742.31
2023-04-15T01:07:34.871Z,99744.66
2023-04-15T01:10:05.648Z,99739.34
2023-04-15T01:12:33.174Z,99746.56
2023-04-15T01:15:00.821Z,99747.00
2023-04-15T01:17:28.264Z,99750.31
2023-04-15T01:19:56.570Z,99750.41
2023-04-15T01:22:24.173Z,99749.16
2023-04-15T01:24:55.343Z,99752.91
2023-04-15T01:27:22.708Z,99755.94
2023-04-15T01:29:49.776Z,99750.19
2023-04-15T01:32:17.215Z,99748.25
2023-04-15T01:35:03.496Z,99746.44
2023-04-15T01:37:48.429Z,99746.41
2023-04-15T01:40:17.410Z,99754.44
2023-04-15T01:42:45.826Z,99755.75
2023-04-15T01:45:14.161Z,99747.81
2023-04-15T01:47:42.539Z,99749.31
2023-04-15T01:50:11.675Z,99747.75
2023-04-15T01:52:40.078Z,99746.13
2023-04-15T01:55:08.626Z,99747.34
2023-04-15T01:57:37.126Z,99741.03
2023-04-15T02:00:07.702Z,99752.78
2023-04-15T02:02:41.874Z,99746.44
2023-04-15T02:05:10.970Z,99746.44
2023-04-15T02:07:39.418Z,99748.81
2023-04-15T02:10:07.899Z,99755.28
2023-04-15T02:12:37.173Z,99753.91
2023-04-15T02:15:05.790Z,99750.66
2023-04-15T02:17:36.438Z,99751.88
2023-04-15T02:20:08.690Z,99751.19
2023-04-15T02:22:37.212Z,99749.03
2023-04-15T02:25:06.154Z,99749.44
2023-04-15T02:27:35.846Z,99750.88
2023-04-15T02:30:04.383Z,99749.81
2023-04-15T02:32:38.071Z,99746.97
2023-04-15T02:35:07.681Z,99753.28
2023-04-15T02:37:40.755Z,99759.00
2023-04-15T02:40:13.929Z,99759.00
2023-04-15T02:42:42.828Z,99761.84
2023-04-15T02:45:13.803Z,99762.22
2023-04-15T02:47:43.993Z,99764.25
2023-04-15T02:50:13.320Z,99768.28
2023-04-15T02:52:43.249Z,99765.38
2023-04-15T02:55:12.681Z,99757.69
2023-04-15T02:57:41.733Z,99762.59
2023-04-15T03:00:12.254Z,99766.59
2023-04-15T03:02:46.181Z,99771.13
2023-04-15T03:05:14.853Z,99762.09
2023-04-15T03:07:52.449Z,99766.13
2023-04-15T03:10:21.390Z,99779.59
2023-04-15T03:12:49.818Z,99772.16
2023-04-15T03:15:21.248Z,99777.50
2023-04-15T03:17:52.791Z,99784.13
2023-04-15T03:20:21.211Z,99781.41
2023-04-15T03:22:50.459Z,99787.84
2023-04-15T03:25:20.831Z,99780.53
2023-04-15T03:27:49.501Z,99785.78
2023-04-15T03:30:18.736Z,99786.97
2023-04-15T03:32:47.720Z,99777.84
2023-04-15T03:35:16.498Z,99788.38
2023-04-15T03:37:44.891Z,99789.22
2023-04-15T03:40:13.229Z,99784.78
2023-04-15T03:42:41.587Z,99791.44
2023-04-15T03:45:10.172Z,99786.22
2023-04-15T03:47:38.629Z,99786.56
2023-04-15T03:50:07.379Z,99787.97
2023-04-15T03:52:35.716Z,99784.97
2023-04-15T03:55:04.313Z,99787.31
2023-04-15T03:57:33.222Z,99787.00
2023-04-15T04:00:01.653Z,99786.09
2023-04-15T04:02:40.519Z,99788.47
2023-04-15T04:05:09.335Z,99792.59
2023-04-15T04:07:37.785Z,99795.78
2023-04-15T04:10:06.834Z,99790.84
2023-04-15T04:12:35.188Z,99793.69
2023-04-15T04:15:03.715Z,99789.69
2023-04-15T04:17:32.201Z,99789.84
2023-04-15T04:20:00.645Z,99794.09
2023-04-15T04:22:29.044Z,99797.63
2023-04-15T04:24:59.454Z,99797.63
2023-04-15T04:27:27.841Z,99800.69
2023-04-15T04:29:56.409Z,99800.38
2023-04-15T04:32:24.753Z,99796.03
2023-04-15T04:34:53.428Z,99798.31
2023-04-15T04:37:21.775Z,99798.50
2023-04-15T04:39:50.291Z,99805.00
2023-04-15T04:42:18.645Z,99805.00
2023-04-15T04:44:47.190Z,99806.56
2023-04-15T04:47:15.668Z,99807.19
2023-04-15T04:49:44.071Z,99810.56
2023-04-15T04:52:12.921Z,99816.78
2023-04-15T04:54:41.293Z,99816.78
2023-04-15T04:57:09.696Z,99818.19
2023-04-15T04:59:38.060Z,99822.09
2023-04-15T05:02:07.031Z,99825.44
2023-04-15T05:04:37.008Z,99830.53
2023-04-15T05:07:05.356Z,99830.06
2023-04-15T05:09:36.156Z,99833.38
2023-04-15T05:12:04.812Z,99841.53
2023-04-15T05:14:33.329Z,99841.03
2023-04-15T05:17:01.654Z,99844.38
2023-04-15T05:19:29.972Z,99845.00
2023-04-15T05:21:58.332Z,99852.94
2023-04-15T05:24:27.250Z,99849.72
2023-04-15T05:26:56.788Z,99860.75
2023-04-15T05:29:25.127Z,99857.94
2023-04-15T05:31:53.447Z,99856.44
2023-04-15T05:34:21.826Z,99850.13
2023-04-15T05:36:50.579Z,99854.63
2023-04-15T05:39:19.112Z,99860.72
2023-04-15T05:41:47.922Z,99860.59
2023-04-15T05:44:16.569Z,99863.94
2023-04-15T05:46:44.971Z,99866.00
2023-04-15T05:49:13.295Z,99874.31
2023-04-15T05:51:41.666Z,99868.47
2023-04-15T05:54:10.024Z,99880.97
2023-04-15T05:56:38.372Z,99871.81
2023-04-15T05:59:07.519Z,99881.13
2023-04-15T06:01:35.931Z,99880.81
2023-04-15T06:04:04.635Z,99875.97
2023-04-15T06:06:33.413Z,99881.19
2023-04-15T06:09:02.081Z,99878.59
2023-04-15T06:11:30.754Z,99879.41
2023-04-15T06:13:59.188Z,99873.19
2023-04-15T06:16:27.802Z,99863.41
2023-04-15T06:18:56.206Z,99860.22
2023-04-15T06:21:24.562Z,99865.06
2023-04-15T06:23:53.234Z,99862.59
2023-04-15T06:26:21.991Z,99858.81
2023-04-15T06:28:50.695Z,99855.34
2023-04-15T06:31:19.176Z,99860.97
2023-04-15T06:33:47.562Z,99862.25
2023-04-15T06:36:15.918Z,99855.63
2023-04-15T06:38:44.269Z,99859.00
2023-04-15T06:41:12.855Z,99863.06
2023-04-15T06:43:41.204Z,99851.72
2023-04-15T06:46:09.636Z,99852.25
2023-04-15T06:48:38.076Z,99853.66
2023-04-15T06:51:06.635Z,99856.16
2023-04-15T06:53:35.670Z,99851.44
2023-04-15T06:56:04.099Z,99854.75
2023-04-15T06:58:32.414Z,99849.59
2023-04-15T07:01:01.212Z,99848.34
2023-04-15T07:03:31.445Z,99851.34
2023-04-15T07:06:01.965Z,99843.97
2023-04-15T07:08:30.600Z,99847.84
2023-04-15T07:10:59.656Z,99855.38
2023-04-15T07:13:27.999Z,99855.19
2023-04-15T07:15:56.835Z,99856.94
2023-04-15T07:18:25.529Z,99853.47
2023-04-15T07:20:53.906Z,99862.16
2023-04-15T07:23:22.494Z,99857.63
2023-04-15T07:25:51.585Z,99860.09
2023-04-15T07:28:20.032Z,99853.94
2023-04-15T07:30:48.686Z,99849.00
2023-04-15T07:33:17.107Z,99843.19
2023-04-15T07:35:46.216Z,99848.28
2023-04-15T07:38:14.631Z,99848.84
2023-04-15T07:40:42.973Z,99851.16
2023-04-15T07:43:11.356Z,99847.31
2023-04-15T07:45:39.714Z,99854.22
2023-04-15T07:48:08.421Z,99856.66
2023-04-15T07:50:36.859Z,99850.19
2023-04-15T07:53:06.314Z,99843.50
2023-04-15T07:55:34.871Z,99843.19
2023-04-15T07:58:03.209Z,99854.78
2023-04-15T08:00:32.062Z,99855.59
2023-04-15T08:03:00.495Z,99853.56
2023-04-15T08:05:29.007Z,99856.19
2023-04-15T08:07:57.424Z,99851.50
2023-04-15T08:10:25.882Z,99858.28
2023-04-15T08:12:55.021Z,99851.44
2023-04-15T08:15:23.571Z,99845.94
2023-04-15T08:17:52.059Z,99856.31
2023-04-15T08:20:20.675Z,99856.88
2023-04-15T08:22:51.950Z,99857.13
2023-04-15T08:25:20.655Z,99852.34
2023-04-15T08:27:49.099Z,99859.16
2023-04-15T08:30:17.499Z,99857.22
2023-04-15T08:32:47.000Z,99860.38
2023-04-15T08:35:15.594Z,99856.16
2023-04-15T08:37:44.047Z,99855.31
2023-04-15T08:40:12.737Z,99857.69
2023-04-15T08:42:45.782Z,99855.72
2023-04-15T08:45:14.563Z,99851.06
2023-04-15T08:47:43.153Z,99855.78
2023-04-15T08:50:11.863Z,99853.28
2023-04-15T08:52:40.325Z,99852.25
2023-04-15T08:55:09.707Z,99849.88
2023-04-15T08:57:38.176Z,99851.03
2023-04-15T09:00:07.095Z,99851.81
2023-04-15T09:02:36.039Z,99848.44
2023-04-15T09:05:06.635Z,99848.94
2023-04-15T09:07:36.499Z,99851.31
2023-04-15T09:10:05.395Z,99852.00
2023-04-15T09:12:37.338Z,99849.91
2023-04-15T09:15:06.059Z,99850.72
2023-04-15T09:17:34.710Z,99845.59
2023-04-15T09:20:13.717Z,99838.66
2023-04-15T09:22:43.344Z,99841.81
2023-04-15T09:25:30.257Z,99839.75
2023-04-15T09:28:03.853Z,99838.47
2023-04-15T09:30:32.348Z,99835.34
2023-04-15T09:33:08.890Z,99833.56
2023-04-15T09:35:37.532Z,99833.63
2023-04-15T09:38:09.881Z,99839.38
2023-04-15T09:40:39.479Z,99839.59
2023-04-15T09:43:08.849Z,99841.91
2023-04-15T09:45:37.480Z,99843.00
2023-04-15T09:48:27.245Z,99838.28
2023-04-15T09:50:58.047Z,99835.09
2023-04-15T09:53:26.545Z,99836.81
2023-04-15T09:55:59.060Z,99831.41
2023-04-15T09:58:28.716Z,99830.47
2023-04-15T10:00:58.005Z,99824.84
2023-04-15T10:03:27.689Z,99825.38
2023-04-15T10:05:57.370Z,99812.72
2023-04-15T10:08:27.122Z,99821.38
2023-04-15T10:10:56.152Z,99810.06
2023-04-15T10:13:26.088Z,99822.50
2023-04-15T10:16:20.810Z,99814.84
2023-04-15T10:18:54.559Z,99824.50
2023-04-15T10:21:23.708Z,99811.16
2023-04-15T10:23:52.193Z,99813.56
2023-04-15T10:26:21.380Z,99805.84
2023-04-15T10:28:50.161Z,99808.69
2023-04-15T10:31:20.090Z,99807.78
2023-04-15T10:33:49.701Z,99805.22
2023-04-15T10:36:19.001Z,99811.56
2023-04-15T10:38:47.498Z,99812.59
2023-04-15T10:41:26.657Z,99810.75
2023-04-15T10:44:02.188Z,99806.56
2023-04-15T10:46:39.125Z,99805.16
2023-04-15T10:49:09.696Z,99803.72
2023-04-15T10:51:42.230Z,99806.78
2023-04-15T10:54:14.234Z,99808.81
2023-04-15T10:56:43.964Z,99806.78
2023-04-15T10:59:12.432Z,99806.72
2023-04-15T11:01:51.488Z,99803.53
2023-04-15T11:04:39.876Z,99798.19
2023-04-15T11:07:09.411Z,99805.84
2023-04-15T11:09:37.884Z,99792.59
2023-04-15T11:12:08.546Z,99799.53
2023-04-15T11:14:41.968Z,99790.38
2023-04-15T11:17:10.671Z,99783.56
2023-04-15T11:19:39.375Z,99789.34
2023-04-15T11:22:08.475Z,99791.06
2023-04-15T11:24:46.751Z,99788.16
2023-04-15T11:27:21.782Z,99797.19
2023-04-15T11:29:50.258Z,99795.09
2023-04-15T11:32:18.744Z,99788.53
2023-04-15T11:34:48.492Z,99788.25
2023-04-15T11:37:16.843Z,99785.63
2023-04-15T11:39:45.163Z,99782.59
2023-04-15T11:42:17.405Z,99793.13
2023-04-15T11:44:45.924Z,99788.13
2023-04-15T11:47:23.726Z,99782.63
2023-04-15T11:49:52.213Z,99788.34
2023-04-15T11:52:19.375Z,99781.94
2023-04-15T11:54:46.928Z,99785.03
2023-04-15T11:57:13.963Z,99783.69
2023-04-15T11:59:45.761Z,99790.75
2023-04-15T12:02:14.359Z,99784.34
2023-04-15T12:04:42.381Z,99784.50
2023-04-15T12:07:09.784Z,99781.25
2023-04-15T12:09:40.081Z,99780.72
2023-04-15T12:12:07.273Z,99778.41
2023-04-15T12:14:34.514Z,99778.94
2023-04-15T12:17:05.474Z,99777.44
2023-04-15T12:19:35.769Z,99790.47
2023-04-15T12:22:04.218Z,99788.31
2023-04-15T12:24:31.922Z,99790.41
2023-04-15T12:27:02.086Z,99787.06
2023-04-15T12:29:30.188Z,99783.25
2023-04-15T12:31:58.325Z,99775.09
2023-04-15T12:34:30.626Z,99792.44
2023-04-15T12:36:59.055Z,99776.31
2023-04-15T12:39:28.656Z,99790.91
2023-04-15T12:41:57.621Z,99780.72
2023-04-15T12:44:24.725Z,99780.69
2023-04-15T12:46:53.579Z,99776.94
2023-04-15T12:49:21.293Z,99781.31
2023-04-15T12:51:53.013Z,99779.53
2023-04-15T12:54:20.463Z,99790.28
2023-04-15T12:56:48.603Z,99776.44
2023-04-15T12:59:16.920Z,99770.16
2023-04-15T13:01:44.515Z,99779.66
2023-04-15T13:04:11.666Z,99781.22
2023-04-15T13:06:38.855Z,99792.91
2023-04-15T13:09:06.350Z,99786.53
2023-04-15T13:11:33.975Z,99779.47
2023-04-15T13:14:01.953Z,99784.50
2023-04-15T13:16:29.658Z,99787.50
2023-04-15T13:18:56.836Z,99772.72
2023-04-15T13:21:24.151Z,99782.53
2023-04-15T13:23:51.511Z,99794.03
2023-04-15T13:26:18.702Z,99790.88
2023-04-15T13:28:46.270Z,99797.53
2023-04-15T13:31:13.558Z,99800.00
2023-04-15T13:33:41.040Z,99793.03
2023-04-15T13:36:08.410Z,99797.53
2023-04-15T13:38:35.463Z,99791.28
2023-04-15T13:41:02.630Z,99801.78
2023-04-15T13:43:29.701Z,99801.88
2023-04-15T13:45:56.864Z,99800.69
2023-04-15T13:48:23.968Z,99792.44
2023-04-15T13:50:51.091Z,99797.50
2023-04-15T13:53:18.139Z,99803.44
2023-04-15T13:55:45.233Z,99794.03
2023-04-15T13:58:12.302Z,99794.00
2023-04-15T14:00:39.464Z,99797.16
2023-04-15T14:03:06.754Z,99797.16
2023-04-15T14:05:33.956Z,99789.63
2023-04-15T14:08:01.044Z,99790.84
2023-04-15T14:10:28.099Z,99798.31
2023-04-15T14:12:55.265Z,99794.41
2023-04-15T14:15:22.307Z,99792.41
2023-04-15T14:17:49.639Z,99795.53
2023-04-15T14:20:17.263Z,99801.09
2023-04-15T14:22:44.524Z,99792.44
2023-04-15T14:25:17.285Z,99797.16
2023-04-15T14:27:50.570Z,99801.03
2023-04-15T14:30:17.582Z,99796.72
2023-04-15T14:32:44.700Z,99800.28
2023-04-15T14:35:11.942Z,99811.31
2023-04-15T14:37:39.132Z,99807.75
2023-04-15T14:40:06.606Z,99807.78
2023-04-15T14:42:33.757Z,99810.53
2023-04-15T14:45:00.799Z,99806.22
2023-04-15T14:47:27.973Z,99813.69
2023-04-15T14:49:55.489Z,99817.63
2023-04-15T14:52:22.621Z,99812.09
2023-04-15T14:54:49.718Z,99815.25
2023-04-15T14:57:16.818Z,99822.72
2023-04-15T14:59:43.910Z,99823.94
2023-04-15T15:02:12.855Z,99834.53
2023-04-15T15:04:41.944Z,99828.22
2023-04-15T15:07:09.036Z,99831.00
2023-04-15T15:09:36.779Z,99834.53
2023-04-15T15:12:03.975Z,99828.63
2023-04-15T15:14:31.050Z,99843.09
2023-04-15T15:16:58.137Z,99837.59
2023-04-15T15:19:25.380Z,99849.00
2023-04-15T15:21:52.450Z,99844.25
2023-04-15T15:24:19.537Z,99848.97
2023-04-15T15:26:46.626Z,99851.31
2023-04-15T15:29:13.645Z,99858.38
2023-04-15T15:31:40.780Z,99854.84
2023-04-15T15:34:07.928Z,99858.75
2023-04-15T15:36:35.091Z,99857.19
2023-04-15T15:39:02.404Z,99860.00
2023-04-15T15:41:29.923Z,99859.56
2023-04-15T15:43:57.127Z,99864.31
2023-04-15T15:46:24.297Z,99861.94
2023-04-15T15:48:51.642Z,99864.31
2023-04-15T15:51:18.755Z,99875.63
2023-04-15T15:53:45.842Z,99872.50
2023-04-15T15:56:12.959Z,99877.19
2023-04-15T15:58:40.095Z,99881.91
2023-04-15T16:01:07.332Z,99874.38
2023-04-15T16:03:37.417Z,99883.78
2023-04-15T16:06:05.010Z,99887.78
2023-04-15T16:08:32.099Z,99882.69
2023-04-15T16:10:59.155Z,99880.75
2023-04-15T16:13:26.256Z,99872.16
2023-04-15T16:15:53.379Z,99884.28
2023-04-15T16:18:20.796Z,99886.19
2023-04-15T16:20:47.913Z,99884.09
2023-04-15T16:23:16.055Z,99893.94
2023-04-15T16:25:44.112Z,99893.94
2023-04-15T16:28:25.141Z,99898.16
2023-04-15T16:30:53.954Z,99900.53
2023-04-15T16:33:21.116Z,99900.88
2023-04-15T16:35:48.258Z,99902.72
2023-04-15T16:38:15.570Z,99908.34
2023-04-15T16:40:42.694Z,99912.28
2023-04-15T16:43:11.508Z,99918.06
2023-04-15T16:45:38.786Z,99922.75
2023-04-15T16:48:06.121Z,99932.06
2023-04-15T16:50:33.177Z,99931.66
2023-04-15T16:53:01.224Z,99937.69
2023-04-15T16:55:28.365Z,99939.25
2023-04-15T16:58:01.624Z,99943.94
2023-04-15T17:00:30.163Z,99948.66
2023-04-15T17:02:57.549Z,99947.13
2023-04-15T17:05:25.177Z,99953.50
2023-04-15T17:07:52.312Z,99958.81
2023-04-15T17:10:19.363Z,99972.88
2023-04-15T17:12:46.465Z,99970.13
2023-04-15T17:15:13.507Z,99980.44
2023-04-15T17:17:46.264Z,99988.34
2023-04-15T17:20:13.421Z,99982.28
2023-04-15T17:22:41.012Z,99995.59
2023-04-15T17:25:08.362Z,100001.59
2023-04-15T17:27:41.395Z,100007.34
2023-04-15T17:30:15.108Z,100006.56
2023-04-15T17:33:02.170Z,100012.75
2023-04-15T17:35:29.382Z,100021.06
2023-04-15T17:38:16.339Z,100021.31
2023-04-15T17:41:03.332Z,100030.56
2023-04-15T17:43:53.377Z,100036.69
2023-04-15T17:46:40.683Z,100042.97
2023-04-15T17:49:27.782Z,100043.72
2023-04-15T17:52:14.761Z,100047.66
2023-04-15T17:55:02.493Z,100052.31
2023-04-15T17:57:49.556Z,100057.81
2023-04-15T18:00:36.762Z,100054.28
2023-04-15T18:03:23.976Z,100070.22
2023-04-15T18:06:11.405Z,100068.28
2023-04-15T18:08:58.436Z,100079.84
2023-04-15T18:11:47.362Z,100077.84
2023-04-15T18:14:35.209Z,100089.53
2023-04-15T18:17:22.365Z,100091.78
2023-04-15T18:20:09.554Z,100087.28
2023-04-15T18:22:36.761Z,100094.94
2023-04-15T18:25:04.446Z,100079.72
2023-04-15T18:27:33.110Z,100100.34
2023-04-15T18:30:00.228Z,100106.31
2023-04-15T18:32:31.649Z,100098.06
2023-04-15T18:34:59.054Z,100110.56
2023-04-15T18:37:26.889Z,100111.78
2023-04-15T18:39:54.189Z,100124.41
2023-04-15T18:42:22.395Z,100132.78
2023-04-15T18:44:49.587Z,100135.13
2023-04-15T18:47:16.942Z,100135.63
2023-04-15T18:49:44.040Z,100145.38
2023-04-15T18:52:11.143Z,100149.91
2023-04-15T18:54:38.438Z,100158.34
2023-04-15T18:57:06.436Z,100154.28
2023-04-15T18:59:34.734Z,100162.66
2023-04-15T19:02:06.238Z,100166.03
2023-04-15T19:04:33.574Z,100170.72
2023-04-15T19:07:01.390Z,100177.13
2023-04-15T19:09:28.794Z,100179.84
2023-04-15T19:11:56.766Z,100179.44
2023-04-15T19:14:23.986Z,100189.69
2023-04-15T19:16:51.157Z,100190.66
2023-04-15T19:19:18.341Z,100203.00
2023-04-15T19:21:49.701Z,100191.09
2023-04-15T19:24:17.913Z,100198.28
2023-04-15T19:26:47.190Z,100202.88
2023-04-15T19:29:14.505Z,100197.50
2023-04-15T19:31:41.802Z,100209.16
2023-04-15T19:34:08.818Z,100217.16
2023-04-15T19:36:36.164Z,100211.28
2023-04-15T19:39:03.411Z,100215.94
2023-04-15T19:41:30.632Z,100210.31
2023-04-15T19:43:57.846Z,100220.63
2023-04-15T19:46:25.003Z,100227.41
2023-04-15T19:48:53.130Z,100222.72
2023-04-15T19:51:20.215Z,100229.50
2023-04-15T19:53:49.470Z,100230.03
2023-04-15T19:56:16.975Z,100238.63
2023-04-15T19:58:46.881Z,100241.69
2023-04-15T20:01:14.098Z,100238.25
2023-04-15T20:03:41.574Z,100231.38
2023-04-15T20:06:08.872Z,100237.38
2023-04-15T20:08:35.976Z,100251.22
2023-04-15T20:11:03.178Z,100245.91
2023-04-15T20:13:30.234Z,100244.25
2023-04-15T20:15:57.340Z,100256.06
2023-04-15T20:18:24.498Z,100250.88
2023-04-15T20:20:51.540Z,100252.91
2023-04-15T20:23:18.652Z,100256.25
2023-04-15T20:25:45.946Z,100248.03
2023-04-15T20:28:13.022Z,100257.28
2023-04-15T20:30:40.294Z,100257.38
2023-04-15T20:33:08.117Z,100255.28
2023-04-15T20:35:35.481Z,100261.81
2023-04-15T20:38:04.066Z,100267.91
2023-04-15T20:40:33.678Z,100269.84
2023-04-15T20:43:00.895Z,100272.00
2023-04-15T20:45:27.951Z,100272.34
2023-04-15T20:47:56.112Z,100277.50
2023-04-15T20:50:23.233Z,100283.34
2023-04-15T20:52:50.549Z,100282.50
2023-04-15T20:55:17.751Z,100274.97
2023-04-15T20:57:44.939Z,100278.56
2023-04-15T21:00:12.206Z,100278.19
2023-04-15T21:02:39.464Z,100279.00
2023-04-15T21:05:06.875Z,100287.84
2023-04-15T21:07:33.955Z,100292.59
2023-04-15T21:10:01.167Z,100294.47
2023-04-15T21:12:28.231Z,100295.59
2023-04-15T21:14:55.452Z,100302.41
2023-04-15T21:17:22.677Z,100306.19
2023-04-15T21:19:49.914Z,100315.84
2023-04-15T21:22:16.950Z,100326.78
2023-04-15T21:24:44.006Z,100321.91
2023-04-15T21:27:11.105Z,100320.09
2023-04-15T21:29:40.324Z,100321.38
2023-04-15T21:32:07.608Z,100315.25
2023-04-15T21:34:34.876Z,100328.97
2023-04-15T21:37:02.033Z,100335.88
2023-04-15T21:39:29.196Z,100332.00
2023-04-15T21:41:57.881Z,100329.50
2023-04-15T21:44:25.088Z,100332.25
2023-04-15T21:46:52.241Z,100332.59
2023-04-15T21:49:20.434Z,100340.13
2023-04-15T21:51:48.015Z,100344.31
2023-04-15T21:54:15.530Z,100345.91
2023-04-15T21:56:43.119Z,100346.69
2023-04-15T21:59:10.368Z,100341.94
2023-04-15T22:01:37.568Z,100355.47
2023-04-15T22:04:06.003Z,100342.97
2023-04-15T22:06:33.307Z,100354.59
2023-04-15T22:09:00.396Z,100353.22
2023-04-15T22:11:28.454Z,100346.19
2023-04-15T22:13:57.256Z,100355.75
2023-04-15T22:16:25.467Z,100349.63
2023-04-15T22:18:52.625Z,100351.78
2023-04-15T22:21:19.798Z,100352.34
2023-04-15T22:23:47.589Z,100349.81
2023-04-15T22:26:14.825Z,100357.44
2023-04-15T22:28:42.067Z,100362.78
2023-04-15T22:31:09.375Z,100356.44
2023-04-15T22:33:36.534Z,100351.56
2023-04-15T22:36:03.910Z,100353.03
2023-04-15T22:38:31.132Z,100364.63
2023-04-15T22:40:58.487Z,100364.16
2023-04-15T22:43:27.414Z,100356.44
2023-04-15T22:45:55.211Z,100363.25
2023-04-15T22:48:23.057Z,100366.09
2023-04-15T22:50:50.310Z,100361.31
2023-04-15T22:53:17.811Z,100364.50
2023-04-15T22:55:46.506Z,100366.81
2023-04-15T22:58:13.826Z,100366.78
2023-04-15T23:00:41.989Z,100369.78
2023-04-15T23:03:09.410Z,100375.41
2023-04-15T23:05:36.934Z,100369.78
2023-04-15T23:08:03.988Z,100366.94
2023-04-15T23:10:31.213Z,100371.47
2023-04-15T23:12:58.333Z,100365.44
2023-04-15T23:15:25.777Z,100376.44
2023-04-15T23:17:52.942Z,100379.72
2023-04-15T23:20:20.035Z,100363.44
2023-04-15T23:22:47.120Z,100365.41
2023-04-15T23:25:14.227Z,100359.84
2023-04-15T23:27:41.272Z,100356.47
2023-04-15T23:30:08.520Z,100364.94
2023-04-15T23:32:35.899Z,100365.88
2023-04-15T23:35:03.093Z,100362.44
2023-04-15T23:37:31.574Z,100363.41
2023-04-15T23:39:58.693Z,100370.34
2023-04-15T23:42:25.948Z,100378.50
2023-04-15T23:44:53.145Z,100383.22
2023-04-15T23:47:21.022Z,100388.13
2023-04-15T23:49:48.227Z,100387.06
2023-04-15T23:52:15.327Z,100379.72
2023-04-15T23:54:42.409Z,100392.72
2023-04-15T23:57:09.506Z,100383.19
2023-04-15T23:59:36.691Z,100376.56
